createdAt,value
2024-02-29T00:00:40.770Z,41.55
2024-02-29T00:03:10.054Z,41.80
2024-02-29T00:05:38.096Z,42.63
2024-02-29T00:08:05.035Z,43.90
2024-02-29T00:10:31.689Z,42.47
2024-02-29T00:12:58.750Z,42.20
2024-02-29T00:15:25.486Z,43.75
2024-02-29T00:17:52.349Z,44.63
2024-02-29T00:20:19.414Z,44.60
2024-02-29T00:22:47.381Z,43.95
2024-02-29T00:25:13.951Z,41.53
2024-02-29T00:27:43.318Z,42.50
2024-02-29T00:30:11.426Z,44.42
2024-02-29T00:32:38.699Z,41.40
2024-02-29T00:35:06.036Z,44.65
2024-02-29T00:37:32.674Z,48.22
2024-02-29T00:39:59.666Z,43.47
2024-02-29T00:42:26.593Z,45.17
2024-02-29T00:44:53.098Z,46.65
2024-02-29T00:47:19.517Z,43.75
2024-02-29T00:49:46.108Z,46.35
2024-02-29T00:52:12.691Z,41.58
2024-02-29T00:54:39.313Z,41.53
2024-02-29T00:57:06.063Z,44.28
2024-02-29T00:59:32.520Z,43.92
2024-02-29T01:01:59.261Z,43.17
2024-02-29T01:04:25.998Z,42.50
2024-02-29T01:06:52.699Z,42.78
2024-02-29T01:09:20.974Z,46.10
2024-02-29T01:11:49.680Z,43.92
2024-02-29T01:14:16.260Z,41.78
2024-02-29T01:16:42.812Z,43.72
2024-02-29T01:19:09.846Z,46.13
2024-02-29T01:21:36.534Z,45.42
2024-02-29T01:24:03.055Z,42.95
2024-02-29T01:26:29.836Z,45.22
2024-02-29T01:28:57.307Z,47.85
2024-02-29T01:31:23.845Z,44.65
2024-02-29T01:33:50.479Z,45.93
2024-02-29T01:36:16.945Z,42.17
2024-02-29T01:38:43.433Z,43.58
2024-02-29T01:41:10.048Z,45.80
2024-02-29T01:43:36.515Z,43.85
2024-02-29T01:46:21.587Z,41.83
2024-02-29T01:48:49.407Z,46.87
2024-02-29T01:51:18.553Z,46.22
2024-02-29T01:53:45.385Z,47.80
2024-02-29T01:56:14.038Z,45.65
2024-02-29T01:58:44.230Z,46.10
2024-02-29T02:01:11.011Z,47.47
2024-02-29T02:03:39.115Z,43.67
2024-02-29T02:06:05.951Z,49.67
2024-02-29T02:08:33.400Z,47.05
2024-02-29T02:11:00.826Z,43.22
2024-02-29T02:13:27.472Z,41.53
2024-02-29T02:15:54.273Z,43.60
2024-02-29T02:18:20.859Z,44.42
2024-02-29T02:20:47.708Z,43.88
2024-02-29T02:23:14.198Z,42.72
2024-02-29T02:25:40.710Z,44.13
2024-02-29T02:28:07.510Z,46.97
2024-02-29T02:30:34.168Z,44.45
2024-02-29T02:33:00.922Z,46.53
2024-02-29T02:35:27.556Z,46.38
2024-02-29T02:37:53.985Z,45.47
2024-02-29T02:40:20.754Z,48.10
2024-02-29T02:42:47.348Z,48.75
2024-02-29T02:45:14.037Z,47.47
2024-02-29T02:47:40.618Z,46.67
2024-02-29T02:50:07.454Z,46.10
2024-02-29T02:52:34.108Z,51.90
2024-02-29T02:55:00.823Z,51.63
2024-02-29T02:57:27.399Z,47.50
2024-02-29T02:59:54.046Z,49.15
2024-02-29T03:02:20.895Z,47.25
2024-02-29T03:04:47.554Z,48.30
2024-02-29T03:07:14.173Z,48.38
2024-02-29T03:09:40.989Z,47.75
2024-02-29T03:12:08.959Z,46.33
2024-02-29T03:14:35.386Z,46.00
2024-02-29T03:17:02.040Z,45.97
2024-02-29T03:19:28.691Z,48.67
2024-02-29T03:21:55.153Z,46.63
2024-02-29T03:24:22.268Z,43.33
2024-02-29T03:26:48.864Z,47.70
2024-02-29T03:29:15.607Z,46.33
2024-02-29T03:31:45.800Z,48.55
2024-02-29T03:34:12.423Z,48.75
2024-02-29T03:36:39.174Z,49.83
2024-02-29T03:39:06.294Z,50.90
2024-02-29T03:41:33.429Z,52.33
2024-02-29T03:44:00.715Z,46.60
2024-02-29T03:46:27.277Z,46.80
2024-02-29T03:48:53.777Z,47.92
2024-02-29T03:51:20.471Z,45.15
2024-02-29T03:53:47.116Z,48.58
2024-02-29T03:56:13.797Z,49.33
2024-02-29T03:58:40.964Z,47.80
2024-02-29T04:01:11.878Z,52.03
2024-02-29T04:03:40.101Z,48.42
2024-02-29T04:06:10.051Z,45.40
2024-02-29T04:08:37.242Z,48.00
2024-02-29T04:11:04.101Z,47.13
2024-02-29T04:13:30.616Z,43.72
2024-02-29T04:15:57.142Z,52.05
2024-02-29T04:18:23.956Z,52.08
2024-02-29T04:20:51.631Z,57.30
2024-02-29T04:23:18.301Z,61.10
2024-02-29T04:25:46.577Z,56.60
2024-02-29T04:28:15.835Z,63.83
2024-02-29T04:30:43.738Z,66.40
2024-02-29T04:33:12.545Z,76.72
2024-02-29T04:35:39.125Z,65.30
2024-02-29T04:38:05.630Z,70.55
2024-02-29T04:40:32.383Z,67.43
2024-02-29T04:42:59.164Z,65.13
2024-02-29T04:45:28.054Z,70.75
2024-02-29T04:47:55.149Z,75.65
2024-02-29T04:50:22.047Z,77.15
2024-02-29T04:52:48.693Z,72.20
2024-02-29T04:55:15.446Z,68.63
2024-02-29T04:57:42.116Z,69.28
2024-02-29T05:00:11.415Z,90.97
2024-02-29T05:02:38.430Z,68.85
2024-02-29T05:05:07.584Z,69.93
2024-02-29T05:07:35.119Z,67.93
2024-02-29T05:10:02.227Z,73.35
2024-02-29T05:12:29.007Z,76.22
2024-02-29T05:14:55.857Z,78.80
2024-02-29T05:17:22.556Z,88.43
2024-02-29T05:19:49.530Z,109.95
2024-02-29T05:22:16.179Z,84.47
2024-02-29T05:24:43.022Z,87.63
2024-02-29T05:27:09.737Z,68.60
2024-02-29T05:29:36.493Z,62.97
2024-02-29T05:32:03.285Z,71.50
2024-02-29T05:34:29.812Z,69.75
2024-02-29T05:36:59.120Z,67.65
2024-02-29T05:39:25.724Z,71.33
2024-02-29T05:41:52.382Z,64.60
2024-02-29T05:44:19.717Z,77.63
2024-02-29T05:46:46.402Z,75.32
2024-02-29T05:49:13.146Z,62.63
2024-02-29T05:51:39.760Z,58.33
2024-02-29T05:54:06.380Z,84.32
2024-02-29T05:56:32.911Z,61.60
2024-02-29T05:59:00.058Z,70.95
2024-02-29T06:01:29.481Z,62.85
2024-02-29T06:03:56.415Z,73.40
2024-02-29T06:06:25.099Z,69.15
2024-02-29T06:08:51.651Z,63.83
2024-02-29T06:11:19.844Z,63.33
2024-02-29T06:13:46.403Z,78.03
2024-02-29T06:16:14.547Z,58.95
2024-02-29T06:18:43.814Z,64.22
2024-02-29T06:21:10.957Z,58.80
2024-02-29T06:23:37.856Z,68.47
2024-02-29T06:26:04.802Z,71.80
2024-02-29T06:28:31.435Z,120.28
2024-02-29T06:30:58.050Z,113.72
2024-02-29T06:33:24.762Z,123.03
2024-02-29T06:35:51.998Z,115.05
2024-02-29T06:38:18.663Z,80.20
2024-02-29T06:40:46.259Z,123.93
2024-02-29T06:43:12.729Z,121.22
2024-02-29T06:45:46.223Z,113.30
2024-02-29T06:48:12.817Z,110.72
2024-02-29T06:50:39.454Z,78.88
2024-02-29T06:53:06.098Z,88.25
2024-02-29T06:55:33.188Z,83.67
2024-02-29T06:58:00.369Z,71.43
2024-02-29T07:00:27.293Z,124.53
2024-02-29T07:02:53.981Z,85.95
2024-02-29T07:05:20.780Z,57.80
2024-02-29T07:07:47.455Z,79.73
2024-02-29T07:10:14.190Z,116.13
2024-02-29T07:12:41.935Z,86.97
2024-02-29T07:15:09.114Z,76.30
2024-02-29T07:17:35.782Z,113.13
2024-02-29T07:20:04.949Z,52.85
2024-02-29T07:22:32.433Z,58.30
2024-02-29T07:25:02.147Z,73.88
2024-02-29T07:27:28.879Z,48.40
2024-02-29T07:29:55.439Z,68.80
2024-02-29T07:32:22.064Z,47.45
2024-02-29T07:34:48.776Z,48.60
2024-02-29T07:37:15.429Z,58.38
2024-02-29T07:39:42.126Z,50.60
2024-02-29T07:42:10.230Z,57.63
2024-02-29T07:44:36.935Z,60.50
2024-02-29T07:47:03.965Z,61.43
2024-02-29T07:49:33.004Z,43.72
2024-02-29T07:51:59.769Z,42.25
2024-02-29T07:54:26.523Z,50.30
2024-02-29T07:56:53.331Z,39.30
2024-02-29T07:59:20.058Z,54.17
2024-02-29T08:01:46.611Z,65.38
2024-02-29T08:04:13.609Z,47.75
2024-02-29T08:06:40.178Z,40.78
2024-02-29T08:09:09.545Z,38.00
2024-02-29T08:11:37.525Z,37.53
2024-02-29T08:14:04.206Z,37.70
2024-02-29T08:16:30.756Z,48.10
2024-02-29T08:18:57.305Z,41.97
2024-02-29T08:21:23.845Z,41.25
2024-02-29T08:23:50.417Z,38.50
2024-02-29T08:26:16.991Z,43.22
2024-02-29T08:28:44.555Z,38.95
2024-02-29T08:31:13.409Z,44.13
2024-02-29T08:33:40.065Z,45.58
2024-02-29T08:36:06.734Z,42.03
2024-02-29T08:38:35.331Z,45.58
2024-02-29T08:41:03.357Z,52.97
2024-02-29T08:43:30.030Z,50.88
2024-02-29T08:45:56.879Z,40.80
2024-02-29T08:48:24.190Z,45.95
2024-02-29T08:50:50.775Z,41.28
2024-02-29T08:53:17.342Z,45.10
2024-02-29T08:55:43.911Z,48.40
2024-02-29T08:58:11.550Z,57.80
2024-02-29T09:00:38.135Z,54.13
2024-02-29T09:03:05.106Z,54.05
2024-02-29T09:05:34.790Z,55.65
2024-02-29T09:08:01.438Z,52.37
2024-02-29T09:10:28.719Z,55.58
2024-02-29T09:12:55.952Z,51.05
2024-02-29T09:15:22.513Z,49.50
2024-02-29T09:17:48.996Z,50.05
2024-02-29T09:20:15.681Z,50.58
2024-02-29T09:22:42.148Z,52.55
2024-02-29T09:25:09.271Z,51.60
2024-02-29T09:27:35.862Z,46.85
2024-02-29T09:30:02.500Z,53.60
2024-02-29T09:32:30.074Z,43.72
2024-02-29T09:34:56.649Z,44.93
2024-02-29T09:37:23.311Z,48.78
2024-02-29T09:39:49.978Z,46.78
2024-02-29T09:42:17.223Z,47.17
2024-02-29T09:44:44.774Z,48.75
2024-02-29T09:47:13.823Z,48.63
2024-02-29T09:49:41.950Z,41.72
2024-02-29T09:52:09.535Z,44.00
2024-02-29T09:54:40.810Z,40.22
2024-02-29T09:57:13.112Z,44.58
2024-02-29T09:59:43.050Z,46.75
2024-02-29T10:02:15.408Z,46.92
2024-02-29T10:04:41.960Z,46.28
2024-02-29T10:07:08.667Z,48.50
2024-02-29T10:09:35.217Z,50.05
2024-02-29T10:12:03.337Z,43.25
2024-02-29T10:14:32.736Z,43.78
2024-02-29T10:17:00.078Z,41.65
2024-02-29T10:19:26.834Z,42.10
2024-02-29T10:21:53.789Z,46.03
2024-02-29T10:24:21.394Z,41.40
2024-02-29T10:26:48.161Z,42.27
2024-02-29T10:29:17.242Z,45.13
2024-02-29T10:31:44.360Z,42.17
2024-02-29T10:34:12.189Z,39.17
2024-02-29T10:36:39.750Z,40.85
2024-02-29T10:39:06.608Z,43.85
2024-02-29T10:41:33.803Z,44.85
2024-02-29T10:44:07.452Z,43.65
2024-02-29T10:46:36.093Z,42.83
2024-02-29T10:49:12.866Z,40.78
2024-02-29T10:51:55.267Z,41.58
2024-02-29T10:54:29.125Z,39.05
2024-02-29T10:56:56.745Z,49.38
2024-02-29T10:59:24.800Z,40.73
2024-02-29T11:01:59.262Z,44.38
2024-02-29T11:04:27.052Z,44.33
2024-02-29T11:06:54.161Z,42.30
2024-02-29T11:09:28.120Z,44.10
2024-02-29T11:12:23.076Z,40.63
2024-02-29T11:14:50.558Z,43.10
2024-02-29T11:17:18.245Z,42.65
2024-02-29T11:19:54.468Z,41.90
2024-02-29T11:22:35.892Z,44.85
2024-02-29T11:25:12.084Z,42.78
2024-02-29T11:27:47.092Z,37.35
2024-02-29T11:30:18.672Z,37.67
2024-02-29T11:32:45.222Z,37.67
2024-02-29T11:35:12.879Z,39.17
2024-02-29T11:37:40.876Z,36.17
2024-02-29T11:40:09.620Z,36.65
2024-02-29T11:42:37.533Z,35.53
2024-02-29T11:45:04.682Z,37.20
2024-02-29T11:47:31.677Z,29.63
2024-02-29T11:50:02.271Z,29.30
2024-02-29T11:52:28.985Z,26.05
2024-02-29T11:54:55.719Z,12.50
2024-02-29T11:57:24.477Z,18.03
2024-02-29T11:59:53.428Z,13.52
2024-02-29T12:02:21.366Z,13.07
2024-02-29T12:04:49.457Z,12.85
2024-02-29T12:07:17.803Z,13.00
2024-02-29T12:09:45.967Z,16.65
2024-02-29T12:12:13.662Z,14.82
2024-02-29T12:14:41.745Z,15.05
2024-02-29T12:17:09.141Z,18.15
2024-02-29T12:19:36.184Z,20.33
2024-02-29T12:22:04.114Z,15.32
2024-02-29T12:24:32.387Z,14.77
2024-02-29T12:26:59.284Z,15.13
2024-02-29T12:29:25.956Z,14.55
2024-02-29T12:31:52.634Z,16.02
2024-02-29T12:34:19.200Z,14.18
2024-02-29T12:36:47.032Z,15.80
2024-02-29T12:39:19.831Z,16.30
2024-02-29T12:41:46.560Z,18.38
2024-02-29T12:44:13.139Z,19.92
2024-02-29T12:46:39.706Z,23.15
2024-02-29T12:49:08.646Z,16.65
2024-02-29T12:51:35.151Z,18.15
2024-02-29T12:54:01.745Z,17.80
2024-02-29T12:56:28.520Z,19.63
2024-02-29T12:58:54.985Z,19.42
2024-02-29T13:01:21.633Z,18.83
2024-02-29T13:03:48.644Z,21.88
2024-02-29T13:06:15.344Z,20.92
2024-02-29T13:08:42.104Z,22.35
2024-02-29T13:11:08.552Z,19.50
2024-02-29T13:13:35.225Z,22.60
2024-02-29T13:16:02.007Z,20.25
2024-02-29T13:18:28.661Z,21.38
2024-02-29T13:20:55.590Z,20.98
2024-02-29T13:23:22.272Z,21.50
2024-02-29T13:25:49.241Z,21.10
2024-02-29T13:28:16.125Z,21.55
2024-02-29T13:30:42.729Z,21.25
2024-02-29T13:33:09.651Z,22.17
2024-02-29T13:35:36.177Z,22.20
2024-02-29T13:38:02.790Z,23.75
2024-02-29T13:40:29.668Z,20.85
2024-02-29T13:42:56.343Z,26.27
2024-02-29T13:45:22.845Z,21.20
2024-02-29T13:47:51.963Z,23.47
2024-02-29T13:50:20.474Z,22.27
2024-02-29T13:52:47.290Z,24.35
2024-02-29T13:55:13.994Z,25.40
2024-02-29T13:57:41.309Z,24.83
2024-02-29T14:00:09.876Z,23.70
2024-02-29T14:02:36.891Z,22.65
2024-02-29T14:05:07.121Z,22.75
2024-02-29T14:07:34.220Z,29.58
2024-02-29T14:10:00.823Z,28.63
2024-02-29T14:12:28.480Z,21.35
2024-02-29T14:14:55.012Z,22.77
2024-02-29T14:17:21.828Z,22.90
2024-02-29T14:19:48.380Z,21.67
2024-02-29T14:22:15.330Z,21.77
2024-02-29T14:24:42.188Z,20.85
2024-02-29T14:27:08.873Z,23.17
2024-02-29T14:29:38.356Z,22.13
2024-02-29T14:32:05.706Z,23.15
2024-02-29T14:34:35.907Z,25.45
2024-02-29T14:37:05.649Z,24.63
2024-02-29T14:39:34.333Z,24.50
2024-02-29T14:42:00.883Z,28.48
2024-02-29T14:44:27.433Z,22.95
2024-02-29T14:46:55.637Z,25.17
2024-02-29T14:49:22.334Z,25.17
2024-02-29T14:51:49.238Z,25.60
2024-02-29T14:54:15.977Z,26.90
2024-02-29T14:56:44.389Z,28.88
2024-02-29T14:59:11.995Z,29.45
2024-02-29T15:01:38.998Z,28.38
2024-02-29T15:04:05.618Z,30.63
2024-02-29T15:06:32.167Z,30.05
2024-02-29T15:08:58.759Z,31.45
2024-02-29T15:11:27.330Z,35.08
2024-02-29T15:13:54.511Z,34.30
2024-02-29T15:16:21.224Z,33.30
2024-02-29T15:18:48.089Z,33.95
2024-02-29T15:21:14.813Z,36.20
2024-02-29T15:23:41.548Z,34.83
2024-02-29T15:26:11.703Z,34.85
2024-02-29T15:28:42.072Z,38.20
2024-02-29T15:31:09.373Z,32.47
2024-02-29T15:33:36.105Z,33.95
2024-02-29T15:36:02.623Z,37.58
2024-02-29T15:38:29.225Z,36.78
2024-02-29T15:40:56.000Z,33.87
2024-02-29T15:43:22.716Z,32.53
2024-02-29T15:45:49.474Z,32.00
2024-02-29T15:48:16.743Z,33.00
2024-02-29T15:50:43.389Z,33.27
2024-02-29T15:53:09.907Z,33.53
2024-02-29T15:55:36.440Z,31.60
2024-02-29T15:58:05.090Z,30.67
2024-02-29T16:00:32.472Z,33.15
2024-02-29T16:02:59.106Z,32.70
2024-02-29T16:05:28.000Z,32.45
2024-02-29T16:07:56.021Z,32.35
2024-02-29T16:10:22.904Z,33.53
2024-02-29T16:12:49.735Z,33.13
2024-02-29T16:15:16.744Z,30.77
2024-02-29T16:17:43.438Z,30.58
2024-02-29T16:20:11.364Z,30.38
2024-02-29T16:22:37.975Z,33.25
2024-02-29T16:25:05.306Z,31.40
2024-02-29T16:27:32.380Z,29.87
2024-02-29T16:29:58.982Z,32.60
2024-02-29T16:32:25.489Z,32.10
2024-02-29T16:34:51.931Z,31.63
2024-02-29T16:37:18.547Z,31.83
2024-02-29T16:39:45.123Z,29.77
2024-02-29T16:42:11.854Z,29.90
2024-02-29T16:44:38.291Z,31.17
2024-02-29T16:47:05.097Z,34.40
2024-02-29T16:49:31.770Z,34.80
2024-02-29T16:51:58.732Z,32.00
2024-02-29T16:54:25.882Z,36.92
2024-02-29T16:56:52.601Z,36.15
2024-02-29T16:59:19.160Z,37.25
2024-02-29T17:01:45.678Z,33.73
2024-02-29T17:04:12.313Z,34.30
2024-02-29T17:06:39.107Z,36.58
2024-02-29T17:09:06.064Z,35.47
2024-02-29T17:11:33.030Z,34.13
2024-02-29T17:13:59.632Z,33.17
2024-02-29T17:16:26.418Z,39.10
2024-02-29T17:18:53.141Z,33.43
2024-02-29T17:21:21.357Z,36.13
2024-02-29T17:23:47.815Z,34.85
2024-02-29T17:26:18.150Z,34.15
2024-02-29T17:28:44.704Z,34.40
2024-02-29T17:31:11.297Z,36.13
2024-02-29T17:33:41.320Z,33.08
2024-02-29T17:36:07.982Z,33.83
2024-02-29T17:38:34.647Z,36.63
2024-02-29T17:41:01.189Z,39.00
2024-02-29T17:43:27.957Z,34.33
2024-02-29T17:45:54.652Z,36.07
2024-02-29T17:48:21.105Z,34.72
2024-02-29T17:50:47.745Z,34.67
2024-02-29T17:53:14.251Z,34.22
2024-02-29T17:55:40.704Z,35.83
2024-02-29T17:58:07.267Z,37.30
2024-02-29T18:00:33.740Z,38.28
2024-02-29T18:03:01.829Z,37.17
2024-02-29T18:05:29.890Z,35.95
2024-02-29T18:08:02.258Z,35.25
2024-02-29T18:10:30.335Z,38.25
2024-02-29T18:12:58.672Z,36.72
2024-02-29T18:15:26.360Z,32.70
2024-02-29T18:17:53.125Z,34.45
2024-02-29T18:20:20.837Z,35.40
2024-02-29T18:22:47.460Z,34.00
2024-02-29T18:25:14.362Z,35.75
2024-02-29T18:27:40.992Z,34.33
2024-02-29T18:30:11.725Z,34.53
2024-02-29T18:32:38.335Z,34.08
2024-02-29T18:35:09.906Z,37.15
2024-02-29T18:37:38.639Z,31.33
2024-02-29T18:40:05.956Z,35.63
2024-02-29T18:42:32.499Z,38.55
2024-02-29T18:45:01.866Z,35.65
2024-02-29T18:47:28.779Z,34.80
2024-02-29T18:49:55.450Z,36.78
2024-02-29T18:52:21.989Z,37.95
2024-02-29T18:54:50.551Z,36.33
2024-02-29T18:57:17.121Z,39.63
2024-02-29T18:59:43.557Z,40.88
2024-02-29T19:02:10.121Z,40.60
2024-02-29T19:04:37.089Z,40.38
2024-02-29T19:07:03.841Z,39.75
2024-02-29T19:09:32.696Z,38.15
2024-02-29T19:11:59.191Z,41.17
2024-02-29T19:14:26.235Z,45.70
2024-02-29T19:16:55.589Z,42.72
2024-02-29T19:19:22.502Z,41.58
2024-02-29T19:21:49.233Z,42.67
2024-02-29T19:24:15.877Z,41.57
2024-02-29T19:26:44.521Z,46.45
2024-02-29T19:29:11.371Z,42.88
2024-02-29T19:31:40.954Z,43.35
2024-02-29T19:34:08.061Z,46.28
2024-02-29T19:36:34.792Z,42.00
2024-02-29T19:39:01.278Z,43.42
2024-02-29T19:41:28.014Z,42.10
2024-02-29T19:43:54.685Z,40.33
2024-02-29T19:46:21.333Z,44.50
2024-02-29T19:48:47.896Z,44.42
2024-02-29T19:51:15.631Z,45.25
2024-02-29T19:53:44.995Z,46.20
2024-02-29T19:56:12.216Z,46.78
2024-02-29T19:58:39.605Z,44.78
2024-02-29T20:01:07.081Z,41.15
2024-02-29T20:03:33.850Z,40.83
2024-02-29T20:06:01.178Z,42.85
2024-02-29T20:08:27.926Z,41.45
2024-02-29T20:10:54.562Z,43.08
2024-02-29T20:13:21.249Z,44.43
2024-02-29T20:15:48.904Z,46.75
2024-02-29T20:18:17.572Z,45.20
2024-02-29T20:20:44.322Z,40.55
2024-02-29T20:23:11.100Z,50.15
2024-02-29T20:25:37.746Z,46.05
2024-02-29T20:28:04.605Z,44.97
2024-02-29T20:30:31.307Z,43.03
2024-02-29T20:32:57.891Z,39.22
2024-02-29T20:35:24.630Z,44.37
2024-02-29T20:37:51.060Z,44.08
2024-02-29T20:40:18.437Z,43.42
2024-02-29T20:42:45.532Z,42.72
2024-02-29T20:45:15.284Z,46.88
2024-02-29T20:47:44.618Z,43.03
2024-02-29T20:50:11.675Z,45.88
2024-02-29T20:52:38.242Z,43.70
2024-02-29T20:55:05.304Z,47.72
2024-02-29T20:57:33.689Z,43.28
2024-02-29T21:00:00.798Z,43.03
2024-02-29T21:02:29.626Z,45.33
2024-02-29T21:04:59.177Z,44.00
2024-02-29T21:07:26.018Z,48.70
2024-02-29T21:09:53.029Z,42.80
2024-02-29T21:12:19.636Z,45.30
2024-02-29T21:14:46.163Z,44.90
2024-02-29T21:17:13.305Z,49.95
2024-02-29T21:19:40.399Z,49.42
2024-02-29T21:22:07.661Z,46.97
2024-02-29T21:24:34.233Z,49.72
2024-02-29T21:27:00.977Z,44.85
2024-02-29T21:29:27.484Z,49.30
2024-02-29T21:31:53.901Z,48.60
2024-02-29T21:34:21.260Z,46.10
2024-02-29T21:36:48.794Z,47.97
2024-02-29T21:39:18.983Z,45.55
2024-02-29T21:41:48.247Z,50.30
2024-02-29T21:44:14.625Z,43.47
2024-02-29T21:46:41.071Z,53.60
2024-02-29T21:49:07.636Z,53.70
2024-02-29T21:51:34.292Z,48.47
2024-02-29T21:54:00.780Z,48.78
2024-02-29T21:56:27.695Z,48.90
2024-02-29T21:58:54.280Z,53.28
2024-02-29T22:01:21.142Z,52.97
2024-02-29T22:03:47.716Z,49.05
2024-02-29T22:06:14.249Z,46.28
2024-02-29T22:08:43.699Z,48.15
2024-02-29T22:11:10.489Z,50.20
2024-02-29T22:13:38.441Z,51.03
2024-02-29T22:16:05.232Z,49.60
2024-02-29T22:18:32.056Z,49.55
2024-02-29T22:20:58.541Z,47.50
2024-02-29T22:23:25.116Z,51.25
2024-02-29T22:25:51.549Z,49.80
2024-02-29T22:28:18.294Z,51.63
2024-02-29T22:30:46.540Z,47.65
2024-02-29T22:33:14.127Z,51.63
2024-02-29T22:35:40.892Z,47.45
2024-02-29T22:38:07.905Z,49.90
2024-02-29T22:40:34.463Z,48.67
2024-02-29T22:43:00.972Z,50.03
2024-02-29T22:45:27.600Z,51.90
2024-02-29T22:47:54.151Z,45.38
2024-02-29T22:50:20.725Z,46.50
2024-02-29T22:52:47.197Z,50.70
2024-02-29T22:55:13.924Z,49.70
2024-02-29T22:57:40.437Z,52.63
2024-02-29T23:00:24.481Z,51.92
2024-02-29T23:02:51.622Z,49.55
2024-02-29T23:05:18.206Z,49.53
2024-02-29T23:07:47.353Z,48.15
2024-02-29T23:10:15.311Z,51.00
2024-02-29T23:12:45.639Z,52.42
2024-02-29T23:15:12.425Z,49.53
2024-02-29T23:17:40.138Z,53.00
2024-02-29T23:20:07.278Z,52.22
2024-02-29T23:22:34.391Z,53.28
2024-02-29T23:25:00.926Z,46.80
2024-02-29T23:27:27.513Z,45.90
2024-02-29T23:29:53.977Z,49.28
2024-02-29T23:32:20.506Z,50.53
2024-02-29T23:34:46.965Z,52.05
2024-02-29T23:37:13.639Z,53.63
2024-02-29T23:39:40.142Z,51.15
2024-02-29T23:42:06.839Z,50.83
2024-02-29T23:44:33.383Z,49.15
2024-02-29T23:47:00.447Z,51.28
2024-02-29T23:49:27.105Z,50.78
2024-02-29T23:51:53.668Z,49.65
2024-02-29T23:54:20.114Z,53.30
2024-02-29T23:56:46.484Z,56.33
2024-02-29T23:59:13.076Z,51.88
